Time;durP1;ratioP1;P1;durP2;ratioP2;P2;SDS_P1;SDS_P2;PMS_P1;PMS_P2;Temp;Humidity;BMP_temperature;BMP_pressure;BME280_temperature;BME280_humidity;BME280_pressure;Samples;Min_cycle;Max_cycle;Signal;HPM_P1;HPM_P2
2022/05/08 00:01:00;;;;;;;10.43;1.85;;;;;;;7.66;82.12;102810.06;5028510;28;20221;-72
2022/05/08 00:03:25;;;;;;;10.60;1.70;;;;;;;7.57;82.10;102800.06;5010837;28;20041;-72
2022/05/08 00:05:51;;;;;;;7.82;2.20;;;;;;;7.67;81.79;102827.53;5028037;28;20025;-72
2022/05/08 00:08:16;;;;;;;10.18;2.47;;;;;;;7.56;81.28;102814.97;5009712;28;20088;-73
2022/05/08 00:10:42;;;;;;;14.13;1.83;;;;;;;7.58;81.44;102825.41;5031111;28;20405;-72
2022/05/08 00:13:09;;;;;;;11.40;2.10;;;;;;;7.51;81.82;102822.28;5023295;28;20064;-72
2022/05/08 00:15:35;;;;;;;12.00;1.90;;;;;;;7.45;82.27;102824.34;5047276;28;20037;-72
2022/05/08 00:18:00;;;;;;;21.63;3.10;;;;;;;7.41;82.51;102821.88;5006241;28;20045;-72
2022/05/08 00:20:25;;;;;;;11.45;2.10;;;;;;;7.43;82.46;102824.44;5023774;28;20454;-72
2022/05/08 00:22:51;;;;;;;9.52;2.05;;;;;;;7.34;81.53;102815.28;5025804;28;20021;-72
2022/05/08 00:25:16;;;;;;;7.43;1.90;;;;;;;7.35;81.69;102824.00;5026829;28;20331;-73
2022/05/08 00:27:42;;;;;;;7.22;1.30;;;;;;;7.33;82.18;102818.81;4978515;28;20030;-71
2022/05/08 00:30:08;;;;;;;9.30;1.98;;;;;;;7.29;82.60;102827.78;5027041;28;20068;-72
2022/05/08 00:32:33;;;;;;;9.00;2.30;;;;;;;7.25;82.84;102815.75;5016439;28;20064;-72
2022/05/08 00:34:58;;;;;;;4.40;1.70;;;;;;;7.23;83.16;102820.25;5018922;28;20029;-72
2022/05/08 00:37:24;;;;;;;6.85;1.50;;;;;;;7.21;83.49;102819.47;5016511;28;20471;-71
2022/05/08 00:39:49;;;;;;;9.23;2.08;;;;;;;7.22;82.99;102815.91;5029923;28;20350;-72
2022/05/08 00:42:14;;;;;;;6.65;2.00;;;;;;;7.13;82.80;102798.84;5032576;28;20116;-72
2022/05/08 00:44:40;;;;;;;6.50;1.98;;;;;;;7.11;83.16;102823.50;5005326;28;20025;-72
2022/05/08 00:47:05;;;;;;;5.90;1.38;;;;;;;7.04;83.19;102827.38;5031693;28;20025;-72
2022/05/08 00:49:31;;;;;;;9.68;1.63;;;;;;;6.91;83.43;102808.75;5021373;28;20037;-72
2022/05/08 00:51:57;;;;;;;8.13;1.45;;;;;;;6.74;83.58;102783.34;5033123;28;20029;-72
2022/05/08 00:54:23;;;;;;;6.40;2.03;;;;;;;6.79;83.81;102797.97;5021325;28;20057;-72
2022/05/08 00:56:49;;;;;;;6.15;1.42;;;;;;;6.85;83.77;102816.94;5019237;28;20501;-72
2022/05/08 00:59:14;;;;;;;7.10;1.58;;;;;;;6.88;83.72;102817.66;5027315;28;20046;-72
2022/05/08 01:01:39;;;;;;;10.38;1.63;;;;;;;6.78;83.58;102812.00;5026059;28;20034;-72
2022/05/08 01:04:05;;;;;;;5.80;1.38;;;;;;;6.74;83.89;102820.09;5018783;28;20096;-72
2022/05/08 01:06:32;;;;;;;6.57;1.58;;;;;;;6.69;84.51;102812.47;5023037;28;20436;-72
2022/05/08 01:08:58;;;;;;;5.63;1.27;;;;;;;6.56;84.35;102790.38;5017441;28;20116;-72
2022/05/08 01:11:24;;;;;;;6.75;1.73;;;;;;;6.68;84.09;102807.28;5012505;28;20031;-72
2022/05/08 01:13:49;;;;;;;8.90;1.80;;;;;;;6.64;84.16;102795.22;5026982;28;20036;-71
2022/05/08 01:16:19;;;;;;;4.15;1.30;;;;;;;6.75;83.54;102819.16;5023429;28;20042;-72
2022/05/08 01:18:46;;;;;;;16.48;1.95;;;;;;;6.56;83.98;102782.53;5031312;28;20045;-72
2022/05/08 01:21:16;;;;;;;7.22;1.92;;;;;;;6.63;83.51;102796.19;5032427;28;20048;-72
2022/05/08 01:23:43;;;;;;;10.57;1.58;;;;;;;6.67;83.25;102801.19;5031149;28;20021;-72
2022/05/08 01:26:09;;;;;;;11.43;2.20;;;;;;;6.72;83.06;102809.66;5021483;28;20537;-72
2022/05/08 01:28:35;;;;;;;5.95;1.65;;;;;;;6.61;83.13;102791.00;5025277;28;20032;-73
2022/05/08 01:31:00;;;;;;;6.43;1.38;;;;;;;6.72;83.00;102807.03;5029507;28;20026;-72
2022/05/08 01:33:27;;;;;;;6.82;1.58;;;;;;;6.62;83.61;102792.72;5031340;28;20033;-72
2022/05/08 01:35:53;;;;;;;8.43;1.60;;;;;;;6.62;82.67;102794.47;5029484;28;20120;-72
2022/05/08 01:38:20;;;;;;;10.25;1.48;;;;;;;6.67;83.28;102809.06;5008359;28;20040;-71
2022/05/08 01:40:46;;;;;;;4.30;1.50;;;;;;;6.58;82.55;102789.38;5030066;28;20029;-72
2022/05/08 01:43:13;;;;;;;4.40;1.80;;;;;;;6.66;82.90;102809.13;5026536;28;20029;-72
2022/05/08 01:45:40;;;;;;;14.32;1.75;;;;;;;6.64;82.32;102809.22;5017849;28;20172;-72
2022/05/08 01:48:22;;;;;;;8.75;1.50;;;;;;;6.58;82.78;102805.13;5027425;28;20053;-71
2022/05/08 01:50:51;;;;;;;9.20;2.08;;;;;;;6.64;82.90;102811.84;5027153;28;20034;-72
2022/05/08 01:53:21;;;;;;;8.85;1.60;;;;;;;6.56;83.32;102806.13;5022528;28;20051;-72
2022/05/08 01:55:54;;;;;;;5.68;2.13;;;;;;;6.47;83.52;102806.59;5016678;28;20042;-72
2022/05/08 01:58:20;;;;;;;6.35;1.52;;;;;;;6.51;83.76;102814.22;5035199;28;20172;-72
2022/05/08 02:00:47;;;;;;;15.93;1.65;;;;;;;6.41;83.03;102805.09;5029747;28;20025;-72
2022/05/08 02:03:12;;;;;;;8.13;1.95;;;;;;;6.38;83.25;102794.78;5025257;28;20428;-72
2022/05/08 02:05:43;;;;;;;5.07;1.88;;;;;;;6.32;83.33;102797.69;5023517;28;20056;-72
2022/05/08 02:08:10;;;;;;;13.65;3.35;;;;;;;6.30;83.07;102794.28;5024307;28;20044;-72
2022/05/08 02:10:35;;;;;;;5.53;1.90;;;;;;;6.41;83.37;102818.22;5023632;28;20389;-72
2022/05/08 02:13:02;;;;;;;4.43;1.40;;;;;;;6.37;83.73;102820.13;5040339;28;20030;-72
2022/05/08 02:15:29;;;;;;;8.32;1.77;;;;;;;6.34;84.29;102820.28;5042529;28;20092;-72
2022/05/08 02:18:02;;;;;;;4.93;2.00;;;;;;;6.34;83.87;102816.81;5027186;28;20041;-72
2022/05/08 02:20:28;;;;;;;4.03;1.30;;;;;;;6.27;83.30;102807.53;5027356;28;20025;-72
2022/05/08 02:22:54;;;;;;;5.88;2.05;;;;;;;6.23;84.22;102803.34;5022515;28;20029;-72
2022/05/08 02:25:20;;;;;;;4.68;1.65;;;;;;;6.27;84.27;102820.63;5024313;28;20470;-72
2022/05/08 02:27:49;;;;;;;9.55;1.98;;;;;;;6.30;84.33;102825.75;5029942;28;20056;-72
2022/05/08 02:30:16;;;;;;;5.32;1.60;;;;;;;6.27;83.96;102825.88;5024784;28;20026;-72
2022/05/08 02:32:42;;;;;;;5.38;1.50;;;;;;;6.24;84.41;102823.41;5025610;28;20041;-71
2022/05/08 02:35:11;;;;;;;5.40;1.63;;;;;;;6.23;84.42;102822.56;5018577;28;20042;-72
2022/05/08 02:37:38;;;;;;;4.53;1.50;;;;;;;6.21;83.88;102827.03;5019894;28;20034;-72
2022/05/08 02:40:06;;;;;;;3.30;1.83;;;;;;;6.20;83.87;102816.63;5027857;28;20021;-72
2022/05/08 02:42:32;;;;;;;8.10;1.58;;;;;;;6.21;84.05;102831.44;5016972;28;20030;-72
2022/05/08 02:44:57;;;;;;;11.00;1.95;;;;;;;6.17;83.48;102826.31;5017876;28;20045;-71
2022/05/08 02:47:22;;;;;;;5.55;1.30;;;;;;;6.13;84.01;102829.16;5016944;28;20168;-71
2022/05/08 02:49:48;;;;;;;2.83;1.23;;;;;;;6.07;83.96;102824.22;5028690;28;20032;-72
2022/05/08 02:52:13;;;;;;;6.05;1.33;;;;;;;6.08;82.84;102825.94;5029343;28;20120;-72
2022/05/08 02:54:39;;;;;;;10.52;1.60;;;;;;;6.07;83.72;102822.44;5025014;28;20511;-72
2022/05/08 02:59:48;;;;;;;8.80;1.27;;;;;;;5.99;84.42;102821.97;5018782;28;20087;-72
2022/05/08 03:02:14;;;;;;;3.33;1.30;;;;;;;6.00;84.44;102825.44;5017062;28;20026;-72
2022/05/08 03:04:39;;;;;;;6.20;1.25;;;;;;;5.98;84.78;102823.72;5020086;28;20030;-72
2022/05/08 03:07:06;;;;;;;5.55;1.23;;;;;;;5.97;84.63;102829.06;5020267;28;20021;-71
2022/05/08 03:09:31;;;;;;;2.92;1.33;;;;;;;5.93;83.99;102822.22;5019595;28;20040;-72
2022/05/08 03:11:56;;;;;;;6.05;1.25;;;;;;;5.77;84.16;102803.75;5017090;28;20112;-72
2022/05/08 03:14:23;;;;;;;4.10;1.27;;;;;;;5.84;83.84;102822.66;5022510;28;20038;-72
2022/05/08 03:16:49;;;;;;;3.85;1.30;;;;;;;5.81;83.79;102822.78;5020063;28;20038;-71
2022/05/08 03:19:14;;;;;;;8.48;1.98;;;;;;;5.70;84.17;102811.00;5019711;28;20123;-71
2022/05/08 03:21:40;;;;;;;4.85;1.10;;;;;;;5.74;83.34;102822.19;5018903;28;20086;-71
2022/05/08 03:24:07;;;;;;;8.27;1.55;;;;;;;5.72;84.05;102824.88;5021399;28;20029;-71
2022/05/08 03:26:33;;;;;;;6.70;1.23;;;;;;;5.71;84.10;102823.19;5017888;28;20568;-71
2022/05/08 03:28:59;;;;;;;6.78;1.50;;;;;;;5.67;84.95;102820.78;5042164;28;20033;-71
2022/05/08 03:31:24;;;;;;;3.30;1.00;;;;;;;5.68;85.43;102823.34;5024251;28;20079;-71
2022/05/08 03:33:49;;;;;;;2.53;1.02;;;;;;;5.62;84.92;102814.88;5024965;28;20026;-71
2022/05/08 03:36:15;;;;;;;3.58;1.55;;;;;;;5.67;84.81;102832.13;5017979;28;20437;-71
2022/05/08 03:38:45;;;;;;;4.40;1.00;;;;;;;5.59;84.40;102818.50;5016886;28;20038;-72
2022/05/08 03:41:15;;;;;;;4.57;1.52;;;;;;;5.66;84.77;102830.44;5026080;28;20018;-71
2022/05/08 03:43:44;;;;;;;8.20;1.63;;;;;;;5.65;85.21;102833.94;5018148;28;20088;-72
2022/05/08 03:46:10;;;;;;;3.10;1.23;;;;;;;5.63;85.44;102827.09;5024925;28;20394;-72
2022/05/08 03:48:36;;;;;;;7.57;1.17;;;;;;;5.67;85.80;102832.13;5039265;28;20029;-71
2022/05/08 03:51:02;;;;;;;5.55;1.50;;;;;;;5.63;84.74;102825.31;5021463;28;20022;-72
2022/05/08 03:53:27;;;;;;;6.43;1.55;;;;;;;5.67;84.77;102829.50;5018218;28;20062;-71
2022/05/08 03:55:52;;;;;;;8.27;1.90;;;;;;;5.57;84.75;102813.34;5016495;28;20038;-71
2022/05/08 03:58:18;;;;;;;6.57;1.35;;;;;;;5.71;84.46;102824.97;5020455;28;20040;-73
2022/05/08 04:00:43;;;;;;;1.73;1.02;;;;;;;5.68;84.34;102828.59;5015727;28;20564;-71
2022/05/08 04:03:09;;;;;;;5.90;1.30;;;;;;;5.71;84.99;102830.22;5022191;28;20055;-71
2022/05/08 04:05:34;;;;;;;5.72;1.52;;;;;;;5.72;85.38;102827.50;5024728;28;20040;-72
2022/05/08 04:07:59;;;;;;;2.72;1.30;;;;;;;5.73;84.97;102831.84;5021268;28;20121;-72
2022/05/08 04:10:25;;;;;;;9.27;1.52;;;;;;;5.78;85.64;102826.38;5020643;28;20033;-71
2022/05/08 04:12:50;;;;;;;4.20;1.20;;;;;;;5.73;85.15;102815.28;5018409;28;20029;-70
2022/05/08 04:18:00;;;;;;;6.53;1.10;;;;;;;5.87;84.64;102839.06;5021093;28;20189;-72
2022/05/08 04:20:25;;;;;;;3.05;1.42;;;;;;;5.74;84.48;102817.81;5022017;28;20122;-72
2022/05/08 04:25:35;;;;;;;4.32;1.00;;;;;;;5.92;83.85;102833.59;5015447;28;20619;-72
2022/05/08 04:28:00;;;;;;;4.47;1.20;;;;;;;5.90;83.80;102838.06;5026928;28;20093;-71
2022/05/08 04:30:25;;;;;;;4.25;1.80;;;;;;;5.95;84.48;102841.38;5010974;28;20045;-72
2022/05/08 04:32:51;;;;;;;2.83;1.38;;;;;;;5.98;84.36;102842.06;5024544;28;20084;-72
2022/05/08 04:35:16;;;;;;;4.25;1.20;;;;;;;6.03;84.13;102849.75;5017510;28;20556;-71
2022/05/08 04:37:42;;;;;;;8.50;1.30;;;;;;;6.05;84.13;102847.03;5020162;28;20022;-71
2022/05/08 04:40:07;;;;;;;8.05;1.75;;;;;;;6.04;83.74;102854.03;5020780;28;20121;-71
2022/05/08 04:42:33;;;;;;;7.32;1.50;;;;;;;6.09;84.07;102853.81;5025215;28;20032;-71
2022/05/08 04:44:59;;;;;;;5.30;1.13;;;;;;;6.05;83.73;102840.00;5024583;28;20041;-72
2022/05/08 04:47:28;;;;;;;6.88;0.93;;;;;;;6.21;84.30;102852.44;5021008;28;20497;-71
2022/05/08 04:49:53;;;;;;;2.28;1.15;;;;;;;6.14;84.18;102834.34;5026950;28;20025;-72
2022/05/08 04:52:19;;;;;;;5.43;1.30;;;;;;;6.37;85.09;102859.47;5028408;28;20051;-72
2022/05/08 04:54:44;;;;;;;5.72;1.45;;;;;;;6.52;84.77;102863.13;5022184;28;20056;-72
2022/05/08 04:57:09;;;;;;;5.05;1.25;;;;;;;6.67;84.17;102858.91;5018756;28;20094;-72
2022/05/08 04:59:35;;;;;;;7.38;1.80;;;;;;;6.80;83.43;102861.78;5023832;28;20038;-72
2022/05/08 05:02:02;;;;;;;8.35;1.80;;;;;;;6.87;82.93;102852.69;5034217;28;20526;-72
2022/05/08 05:04:28;;;;;;;7.47;1.52;;;;;;;7.09;82.66;102865.56;5020141;28;20029;-71
2022/05/08 05:06:53;;;;;;;5.35;1.83;;;;;;;7.27;82.83;102868.19;5018642;28;20048;-72
2022/05/08 05:09:18;;;;;;;7.22;2.13;;;;;;;7.30;82.42;102861.00;5023236;28;20139;-71
2022/05/08 05:11:44;;;;;;;7.35;1.67;;;;;;;7.41;81.74;102856.03;5023989;28;20026;-72
2022/05/08 05:14:09;;;;;;;5.55;1.60;;;;;;;7.63;81.89;102874.16;5024345;28;20072;-72
2022/05/08 05:16:34;;;;;;;9.77;2.03;;;;;;;7.77;81.70;102870.81;5019465;28;20059;-72
2022/05/08 05:19:00;;;;;;;5.00;1.85;;;;;;;7.94;81.89;102882.19;5026925;28;20053;-72
2022/05/08 05:21:25;;;;;;;9.68;1.65;;;;;;;8.04;81.83;102886.84;5023880;28;20030;-72
2022/05/08 05:23:50;;;;;;;10.82;2.35;;;;;;;8.12;81.85;102880.31;5024085;28;20355;-72
2022/05/08 05:26:16;;;;;;;6.38;3.30;;;;;;;8.18;82.04;102883.47;5022578;28;20060;-71
2022/05/08 05:28:43;;;;;;;9.48;2.67;;;;;;;8.26;82.76;102885.69;5025165;28;20029;-72
2022/05/08 05:31:08;;;;;;;12.70;2.97;;;;;;;8.30;83.22;102891.63;5030935;28;20031;-72
2022/05/08 05:33:33;;;;;;;6.15;2.55;;;;;;;8.32;83.67;102884.47;5023595;28;20029;-72
2022/05/08 05:35:59;;;;;;;10.63;2.17;;;;;;;8.29;83.63;102866.25;5003205;28;20038;-72
2022/05/08 05:38:24;;;;;;;3.60;0.90;;;;;;;8.53;82.96;102899.09;5025034;28;20068;-72
2022/05/08 05:40:49;;;;;;;4.47;1.23;;;;;;;8.45;81.72;102867.13;5020438;28;20037;-72
2022/05/08 05:43:15;;;;;;;4.25;1.15;;;;;;;8.63;81.56;102884.50;5021646;28;20116;-72
2022/05/08 05:45:40;;;;;;;9.50;1.45;;;;;;;8.78;81.21;102903.00;5003386;28;20061;-71
2022/05/08 05:48:06;;;;;;;9.95;1.05;;;;;;;8.80;80.88;102894.06;5025501;28;20378;-72
2022/05/08 05:50:31;;;;;;;7.30;1.10;;;;;;;8.99;81.02;102904.41;5024012;28;20095;-72
2022/05/08 05:52:57;;;;;;;8.02;1.48;;;;;;;9.15;80.44;102899.06;5023736;28;20064;-71
2022/05/08 05:55:22;;;;;;;4.38;1.13;;;;;;;9.11;79.72;102883.53;5019407;28;20481;-71
2022/05/08 05:57:47;;;;;;;4.10;1.38;;;;;;;9.24;79.12;102895.03;4990529;28;20026;-71
2022/05/08 06:00:16;;;;;;;3.47;0.93;;;;;;;9.26;78.45;102896.66;5012837;28;20026;-72
2022/05/08 06:02:43;;;;;;;9.18;1.67;;;;;;;9.39;77.55;102917.84;5017935;28;20136;-71
2022/05/08 06:05:10;;;;;;;8.32;1.58;;;;;;;9.34;76.84;102912.00;5012304;28;20041;-72
2022/05/08 06:07:37;;;;;;;5.88;1.10;;;;;;;9.33;78.16;102922.63;5012148;28;20029;-71
2022/05/08 06:10:05;;;;;;;6.70;1.15;;;;;;;9.29;77.13;102932.50;5011779;28;20025;-72
2022/05/08 06:12:31;;;;;;;5.07;1.23;;;;;;;9.22;76.97;102925.91;5018905;28;20108;-73
2022/05/08 06:14:56;;;;;;;7.53;1.02;;;;;;;9.40;76.58;102923.97;5022447;28;20501;-73
2022/05/08 06:17:21;;;;;;;5.60;1.90;;;;;;;9.81;76.23;102928.53;5015656;28;20083;-72
2022/05/08 06:19:47;;;;;;;9.95;1.95;;;;;;;9.88;74.08;102935.94;5019332;28;20113;-70
2022/05/08 06:22:12;;;;;;;3.30;0.98;;;;;;;10.00;75.38;102933.53;5018055;28;20058;-72
2022/05/08 06:24:38;;;;;;;8.50;1.35;;;;;;;10.00;74.56;102918.53;5011623;28;20030;-71
2022/05/08 06:27:05;;;;;;;4.32;1.40;;;;;;;10.17;74.29;102925.41;5005706;28;20124;-71
2022/05/08 06:29:32;;;;;;;8.45;1.33;;;;;;;10.64;73.07;102934.75;5020674;28;20504;-71
2022/05/08 06:31:58;;;;;;;6.45;1.35;;;;;;;11.08;71.16;102933.63;5016415;28;20404;-71
2022/05/08 06:34:24;;;;;;;9.15;1.55;;;;;;;11.33;69.88;102931.97;5019085;28;20113;-72
2022/05/08 06:36:49;;;;;;;10.40;1.83;;;;;;;11.90;69.17;102944.81;5017524;28;20121;-72
2022/05/08 06:39:15;;;;;;;10.75;1.60;;;;;;;12.13;66.77;102923.84;5017429;28;20037;-71
2022/05/08 06:41:41;;;;;;;6.38;1.17;;;;;;;12.58;65.89;102942.63;5020498;28;20034;-71
2022/05/08 06:44:07;;;;;;;5.25;0.80;;;;;;;13.20;64.59;102928.34;5016787;28;20247;-71
2022/05/08 06:46:35;;;;;;;3.25;1.23;;;;;;;13.94;61.50;102955.38;5019290;28;20067;-72
2022/05/08 06:49:02;;;;;;;7.43;1.58;;;;;;;14.66;62.24;102963.88;5021437;28;20021;-72
2022/05/08 06:51:28;;;;;;;5.93;1.35;;;;;;;14.97;58.25;102943.56;5013185;28;20175;-72
2022/05/08 06:53:53;;;;;;;5.47;1.75;;;;;;;15.54;57.26;102960.06;5021079;28;20049;-72
2022/05/08 06:56:19;;;;;;;13.05;1.88;;;;;;;16.10;55.46;102966.81;5021885;28;20508;-72
2022/05/08 07:01:34;;;;;;;6.97;1.48;;;;;;;15.94;54.96;102969.97;5018741;28;20095;-72
2022/05/08 07:03:59;;;;;;;6.45;1.40;;;;;;;15.79;54.85;102972.16;5020750;28;20472;-72
2022/05/08 07:06:25;;;;;;;6.18;1.50;;;;;;;15.71;55.19;102975.47;5016416;28;20129;-72
2022/05/08 07:08:50;;;;;;;4.28;1.15;;;;;;;16.28;55.04;102972.34;4997031;28;20401;-72
2022/05/08 07:11:15;;;;;;;4.90;1.50;;;;;;;16.66;53.85;102977.75;5012844;28;20025;-73
2022/05/08 07:13:41;;;;;;;10.77;1.35;;;;;;;17.69;51.43;102976.31;5027347;28;20029;-73
2022/05/08 07:16:07;;;;;;;7.43;1.40;;;;;;;18.49;51.33;102965.97;5008369;28;20037;-72
2022/05/08 07:18:33;;;;;;;6.38;1.15;;;;;;;19.02;49.68;102974.22;5000517;28;20026;-72
2022/05/08 07:20:58;;;;;;;8.43;1.60;;;;;;;19.30;47.08;102983.81;4995538;28;20037;-74
2022/05/08 07:23:24;;;;;;;6.43;1.73;;;;;;;19.62;47.38;102981.50;5006553;28;20424;-74
2022/05/08 07:25:49;;;;;;;7.25;1.50;;;;;;;19.38;46.67;102976.81;5027403;28;20120;-73
2022/05/08 07:28:15;;;;;;;6.63;1.30;;;;;;;19.59;46.38;102982.66;5011708;28;20037;-73
2022/05/08 07:30:40;;;;;;;8.70;1.85;;;;;;;18.66;47.80;102975.03;5010966;28;20049;-72
2022/05/08 07:33:06;;;;;;;5.38;1.10;;;;;;;19.00;48.35;102984.22;5005527;28;20064;-73
2022/05/08 07:38:17;;;;;;;4.38;0.93;;;;;;;17.68;49.36;102990.66;5007125;28;20503;-73
2022/05/08 07:40:47;;;;;;;4.60;1.30;;;;;;;17.77;50.12;102980.94;5008066;28;20025;-72
2022/05/08 07:43:13;;;;;;;5.70;1.07;;;;;;;18.87;47.58;102988.13;5031269;28;20367;-73
2022/05/08 07:45:38;;;;;;;5.82;1.50;;;;;;;19.50;46.68;102979.09;5013092;28;20061;-73
2022/05/08 07:48:04;;;;;;;6.03;1.40;;;;;;;19.84;46.23;102991.72;5011200;28;20036;-73
2022/05/08 07:50:30;;;;;;;5.88;1.63;;;;;;;20.21;44.30;102970.91;5005157;28;20125;-74
2022/05/08 07:52:55;;;;;;;6.05;1.13;;;;;;;20.47;45.10;102995.84;5004113;28;20076;-73
2022/05/08 07:55:20;;;;;;;8.50;1.67;;;;;;;21.02;44.76;102988.22;5007226;28;20128;-74
2022/05/08 07:57:46;;;;;;;8.10;1.42;;;;;;;21.92;43.48;102993.50;5007208;28;20025;-72
2022/05/08 08:00:11;;;;;;;6.15;1.50;;;;;;;22.73;42.07;102996.81;5014089;28;20528;-72
2022/05/08 08:02:37;;;;;;;7.53;1.27;;;;;;;22.54;41.12;102980.13;5009674;28;20061;-72
2022/05/08 08:05:02;;;;;;;5.30;1.20;;;;;;;22.21;43.13;103000.09;4995138;28;20060;-72
2022/05/08 08:07:28;;;;;;;7.78;1.50;;;;;;;22.46;42.56;102999.00;5013732;28;20084;-72
2022/05/08 08:09:54;;;;;;;16.10;1.80;;;;;;;22.54;41.55;102982.81;5010280;28;20030;-73
2022/05/08 08:12:19;;;;;;;8.27;1.70;;;;;;;23.40;41.23;102988.84;5019082;28;20071;-72
2022/05/08 08:14:44;;;;;;;6.20;1.33;;;;;;;23.53;39.49;102998.19;4987639;28;20028;-72
2022/05/08 08:17:10;;;;;;;5.15;1.27;;;;;;;22.85;40.43;102994.56;5020363;28;20048;-74
2022/05/08 08:19:35;;;;;;;4.72;1.10;;;;;;;23.19;40.80;103005.75;5017634;28;20033;-74
2022/05/08 08:22:01;;;;;;;6.65;2.05;;;;;;;23.59;40.63;103003.66;5015922;28;20080;-71
2022/05/08 08:24:27;;;;;;;6.72;1.40;;;;;;;23.97;39.31;103006.28;5016579;28;20405;-72
2022/05/08 08:26:52;;;;;;;5.65;1.15;;;;;;;24.07;40.23;102999.81;5016028;28;20101;-71
2022/05/08 08:29:17;;;;;;;6.65;1.33;;;;;;;23.87;37.62;103008.47;4994604;28;20121;-71
2022/05/08 08:31:43;;;;;;;7.65;1.85;;;;;;;24.74;38.31;103025.75;5015092;28;20036;-71
2022/05/08 08:34:08;;;;;;;7.13;1.73;;;;;;;25.20;37.41;103009.16;5013464;28;20022;-71
2022/05/08 08:36:33;;;;;;;5.82;1.30;;;;;;;24.30;36.71;103019.41;5001144;28;20030;-70
2022/05/08 08:38:59;;;;;;;7.05;1.48;;;;;;;24.39;37.17;103020.13;5014192;28;20049;-70
2022/05/08 08:41:32;;;;;;;7.13;1.70;;;;;;;23.79;38.05;103017.47;5016611;28;20021;-70
2022/05/08 08:49:38;;;;;;;8.15;1.60;;;;;;;22.99;38.13;103024.22;5013955;28;20080;-69
2022/05/08 08:52:03;;;;;;;9.88;1.70;;;;;;;22.76;40.13;103026.91;5013223;28;20374;-70
2022/05/08 08:54:29;;;;;;;7.28;2.13;;;;;;;22.58;39.22;103019.13;5022313;28;20072;-70
2022/05/08 08:56:54;;;;;;;5.88;1.55;;;;;;;22.74;40.60;103023.56;5017662;28;20360;-70
2022/05/08 08:59:21;;;;;;;6.13;1.58;;;;;;;23.72;39.11;103021.06;5020078;28;20468;-70
2022/05/08 09:01:46;;;;;;;4.95;1.60;;;;;;;24.78;38.75;103024.28;5020359;28;20109;-70
2022/05/08 09:04:13;;;;;;;7.93;1.50;;;;;;;24.95;38.16;103025.72;5018839;28;20116;-70
2022/05/08 09:06:42;;;;;;;9.38;2.45;;;;;;;25.00;36.81;103020.59;5024432;28;20033;-70
2022/05/08 09:09:27;;;;;;;9.75;1.88;;;;;;;24.70;37.38;103027.16;5018088;28;20124;-70
2022/05/08 09:11:55;;;;;;;7.22;1.58;;;;;;;25.22;37.79;103024.13;5018058;28;20104;-70
2022/05/08 09:14:31;;;;;;;7.68;1.77;;;;;;;26.11;35.63;103019.94;5023188;28;20576;-70
2022/05/08 09:16:58;;;;;;;6.88;1.88;;;;;;;25.80;35.84;103023.06;5023222;28;20033;-70
2022/05/08 09:19:30;;;;;;;5.22;1.30;;;;;;;26.30;35.08;103028.34;5021302;28;20553;-70
2022/05/08 09:21:58;;;;;;;5.55;1.60;;;;;;;26.50;34.76;103009.44;5021245;28;20304;-70
2022/05/08 09:24:23;;;;;;;8.75;2.58;;;;;;;27.13;34.77;103026.22;5016837;28;20029;-70
2022/05/08 09:26:50;;;;;;;11.43;1.73;;;;;;;27.43;34.23;103039.41;5014599;28;20033;-69
2022/05/08 09:29:22;;;;;;;6.18;1.17;;;;;;;27.62;33.43;103037.72;5015748;28;20034;-70
2022/05/08 09:31:47;;;;;;;6.78;1.55;;;;;;;28.06;32.47;103034.28;5019494;28;20116;-70
2022/05/08 09:34:13;;;;;;;8.55;1.55;;;;;;;28.02;34.52;103021.34;5018642;28;20428;-69
2022/05/08 09:36:39;;;;;;;4.53;1.20;;;;;;;28.16;33.74;103033.84;5018999;28;20363;-70
2022/05/08 09:39:05;;;;;;;7.15;1.42;;;;;;;28.61;33.69;103038.41;5018912;28;20032;-70
2022/05/08 09:41:49;;;;;;;6.35;1.30;;;;;;;28.04;33.28;103025.50;5021321;28;20040;-70
2022/05/08 09:44:17;;;;;;;5.32;1.17;;;;;;;26.82;35.05;103005.16;5015377;28;20021;-70
2022/05/08 09:46:44;;;;;;;8.90;1.58;;;;;;;26.54;34.74;103019.66;5018404;28;20033;-69
2022/05/08 09:49:18;;;;;;;6.10;1.77;;;;;;;26.75;33.86;103024.13;5013061;28;20125;-71
2022/05/08 09:51:45;;;;;;;9.20;2.38;;;;;;;26.54;34.46;103018.84;5022922;28;20014;-70
2022/05/08 09:54:13;;;;;;;6.00;1.58;;;;;;;26.93;34.59;103022.69;5020727;28;20437;-70
2022/05/08 09:56:39;;;;;;;5.57;1.27;;;;;;;27.68;33.13;103020.59;5018361;28;20647;-69
2022/05/08 09:59:08;;;;;;;8.02;1.40;;;;;;;27.85;33.19;103027.25;5016411;28;20021;-70
2022/05/08 10:01:34;;;;;;;4.50;1.55;;;;;;;28.03;33.24;103023.03;5014500;28;20041;-70
2022/05/08 10:03:59;;;;;;;4.65;1.40;;;;;;;29.01;33.27;103033.56;5021007;28;20393;-70
2022/05/08 10:06:28;;;;;;;7.18;1.45;;;;;;;28.81;32.39;103025.56;5018835;28;20033;-70
2022/05/08 10:13:53;;;;;;;10.40;1.88;;;;;;;28.34;31.90;103024.16;5019302;28;20029;-70
2022/05/08 10:14:27;;;;;;;5.43;1.77;;;;;;;28.50;32.91;103029.09;5022942;28;20092;-70
2022/05/08 10:17:06;;;;;;;7.15;1.55;;;;;;;29.11;31.97;103025.78;5019357;28;20489;-69
2022/05/08 10:19:31;;;;;;;6.80;1.45;;;;;;;29.23;31.79;103019.59;5015579;28;20025;-70
2022/05/08 10:21:57;;;;;;;4.87;1.40;;;;;;;29.56;31.60;103015.72;5016536;28;20033;-70
2022/05/08 10:24:33;;;;;;;5.53;2.03;;;;;;;28.87;31.17;103019.22;5022818;28;20347;-70
2022/05/08 10:27:17;;;;;;;4.38;1.30;;;;;;;29.40;31.30;103017.97;5019018;28;20053;-70
2022/05/08 10:29:57;;;;;;;10.00;1.73;;;;;;;29.23;31.98;103022.31;5020846;28;20385;-70
2022/05/08 10:32:32;;;;;;;8.77;1.60;;;;;;;28.61;32.29;103019.41;5015630;28;20033;-70
2022/05/08 10:35:06;;;;;;;6.85;1.55;;;;;;;27.90;34.19;103016.59;5012231;28;20030;-70
2022/05/08 10:37:32;;;;;;;4.93;1.40;;;;;;;28.23;31.94;103021.06;5023704;28;20046;-70
2022/05/08 10:39:58;;;;;;;6.25;1.52;;;;;;;28.96;31.88;103025.22;5014431;28;20115;-70
2022/05/08 10:42:23;;;;;;;5.45;1.40;;;;;;;29.31;30.41;103013.88;5020514;28;20021;-70
2022/05/08 10:44:49;;;;;;;4.90;1.38;;;;;;;30.06;32.07;103015.59;5012186;28;20026;-70
2022/05/08 10:47:33;;;;;;;7.75;1.73;;;;;;;29.79;30.17;103010.47;5017783;28;20021;-70
2022/05/08 10:50:11;;;;;;;5.13;1.23;;;;;;;29.36;31.51;103005.88;5018921;28;20371;-70
2022/05/08 10:52:42;;;;;;;6.75;1.63;;;;;;;29.89;30.94;103008.03;5015184;28;20021;-70
2022/05/08 10:55:12;;;;;;;6.35;1.42;;;;;;;29.80;30.06;103003.97;5013595;28;20133;-70
2022/05/08 10:57:39;;;;;;;8.07;1.55;;;;;;;29.84;31.09;103001.63;5021068;28;20026;-70
2022/05/08 11:00:22;;;;;;;5.93;1.85;;;;;;;29.89;32.18;103005.31;5012384;28;20497;-70
2022/05/08 11:02:50;;;;;;;7.35;1.90;;;;;;;30.82;30.13;103007.84;5013161;28;20146;-70
2022/05/08 11:05:24;;;;;;;8.70;1.90;;;;;;;31.20;28.51;103003.88;5022701;28;20094;-69
2022/05/08 11:07:52;;;;;;;8.25;1.90;;;;;;;30.84;29.52;103011.16;5010755;28;20028;-69
2022/05/08 11:10:39;;;;;;;7.07;1.92;;;;;;;30.04;29.78;103001.38;5019163;28;20026;-70
2022/05/08 11:13:11;;;;;;;8.02;1.88;;;;;;;30.62;29.53;103003.53;5020461;28;20075;-69
2022/05/08 11:15:42;;;;;;;4.22;1.67;;;;;;;30.61;30.22;103001.84;5018860;28;20032;-69
2022/05/08 11:18:22;;;;;;;5.97;1.50;;;;;;;30.54;31.16;102992.97;5015986;28;20034;-70
2022/05/08 11:21:02;;;;;;;7.07;1.73;;;;;;;31.03;29.87;102999.13;5012089;28;20444;-69
2022/05/08 11:23:33;;;;;;;10.63;1.90;;;;;;;30.66;29.58;102982.94;5022930;28;20029;-69
2022/05/08 11:26:06;;;;;;;6.28;1.55;;;;;;;30.67;28.79;103000.94;5023562;28;20489;-69
2022/05/08 11:28:32;;;;;;;5.78;1.65;;;;;;;29.85;30.73;102986.94;5021400;28;20281;-69
2022/05/08 11:30:59;;;;;;;9.63;1.52;;;;;;;29.74;29.99;102993.97;5018602;28;20108;-69
2022/05/08 11:36:23;;;;;;;9.88;1.90;;;;;;;28.48;32.40;102994.00;5017002;28;20112;-69
2022/05/08 11:38:50;;;;;;;4.35;1.42;;;;;;;28.49;31.71;102989.41;5023597;28;20025;-69
2022/05/08 11:41:26;;;;;;;6.90;1.58;;;;;;;29.04;31.21;102976.00;5017332;28;20022;-68
2022/05/08 11:43:54;;;;;;;4.65;1.35;;;;;;;30.00;30.54;102997.44;5010946;28;20025;-69
2022/05/08 11:46:32;;;;;;;4.65;1.60;;;;;;;29.67;30.50;102990.50;5018762;28;20589;-68
2022/05/08 11:48:58;;;;;;;4.68;1.33;;;;;;;30.06;31.31;102988.38;5014513;28;20033;-70
2022/05/08 11:51:23;;;;;;;7.40;2.15;;;;;;;29.10;30.07;102991.47;5013983;28;20505;-69
2022/05/08 11:53:51;;;;;;;7.00;1.63;;;;;;;29.82;31.27;102984.69;5004096;28;20140;-69